Time;durP1;ratioP1;P1;durP2;ratioP2;P2;SDS_P1;SDS_P2;PMS_P1;PMS_P2;Temp;Humidity;BMP_temperature;BMP_pressure;BME280_temperature;BME280_humidity;BME280_pressure;Samples;Min_cycle;Max_cycle;Signal;HPM_P1;HPM_P2
2021/01/08 00:00:10;;;;;;;47.65;32.20;;;76.90;2227.20;;;;;;4912718;29;20032;-67
2021/01/08 00:02:36;;;;;;;42.42;30.83;;;76.90;2227.20;;;;;;4914252;29;20029;-67
2021/01/08 00:05:02;;;;;;;48.50;32.78;;;76.90;2227.20;;;;;;4915514;29;20092;-67
2021/01/08 00:07:33;;;;;;;50.33;33.17;;;76.90;2227.20;;;;;;4914984;29;20044;-69
2021/01/08 00:09:58;;;;;;;45.60;32.83;;;76.90;2227.20;;;;;;4915989;29;20100;-72
2021/01/08 00:12:24;;;;;;;45.53;31.50;;;76.90;2227.20;;;;;;4910431;29;20514;-71
2021/01/08 00:14:50;;;;;;;46.05;32.00;;;76.80;2227.20;;;;;;4915525;29;20080;-72
2021/01/08 00:17:15;;;;;;;44.10;29.58;;;76.90;2227.20;;;;;;4916007;29;20495;-67
2021/01/08 00:19:41;;;;;;;43.60;29.95;;;76.90;2227.20;;;;;;4915197;29;20046;-68
2021/01/08 00:22:06;;;;;;;43.30;30.08;;;76.90;2227.20;;;;;;4914011;29;20123;-69
2021/01/08 00:24:32;;;;;;;39.45;28.50;;;76.90;2227.20;;;;;;4910325;29;20047;-70
2021/01/08 00:27:02;;;;;;;37.70;27.52;;;76.90;2227.20;;;;;;4916196;29;20031;-69
2021/01/08 00:29:28;;;;;;;38.08;26.55;;;76.90;2227.20;;;;;;4908847;29;20047;-66
2021/01/08 00:31:54;;;;;;;33.35;25.13;;;76.90;2227.20;;;;;;4916691;29;20032;-68
2021/01/08 00:34:19;;;;;;;34.65;25.77;;;76.90;2227.20;;;;;;4915215;29;20475;-68
2021/01/08 00:36:53;;;;;;;31.95;22.38;;;76.90;2227.20;;;;;;4913289;29;20062;-68
2021/01/08 00:39:19;;;;;;;;;;;77.00;2227.20;;;;;;4915899;29;20043;-68
2021/01/08 00:41:45;;;;;;;32.63;21.80;;;77.00;2227.20;;;;;;4915891;29;19907;-72
2021/01/08 00:44:11;;;;;;;30.52;22.83;;;77.00;2227.20;;;;;;4913060;29;20032;-72
2021/01/08 00:46:40;;;;;;;32.30;22.65;;;77.00;2227.20;;;;;;4916065;29;20024;-66
2021/01/08 00:49:06;;;;;;;28.42;21.00;;;77.00;2227.20;;;;;;4914517;29;20032;-71
2021/01/08 00:51:33;;;;;;;30.80;21.92;;;77.00;2227.20;;;;;;4914700;29;20120;-67
2021/01/08 00:53:59;;;;;;;26.88;19.90;;;77.00;2227.20;;;;;;4913667;29;20111;-68
2021/01/08 00:56:25;;;;;;;27.98;20.55;;;77.00;2227.20;;;;;;4914221;29;20040;-67
2021/01/08 00:58:51;;;;;;;27.02;19.67;;;77.10;2227.20;;;;;;4915808;29;20032;-67
2021/01/08 01:01:18;;;;;;;28.98;20.13;;;77.10;2227.20;;;;;;4914887;29;20099;-67
2021/01/08 01:03:44;;;;;;;30.73;20.63;;;77.10;2227.20;;;;;;4915410;29;20102;-69
2021/01/08 01:06:09;;;;;;;27.58;20.63;;;77.10;2227.20;;;;;;4912761;29;20443;-70
2021/01/08 01:08:35;;;;;;;34.90;24.08;;;77.10;2227.20;;;;;;4914748;29;20052;-72
2021/01/08 01:11:01;;;;;;;32.00;23.65;;;77.10;2227.20;;;;;;4915296;29;20492;-69
2021/01/08 01:13:28;;;;;;;35.80;25.00;;;77.10;2227.20;;;;;;4915675;29;20040;-68
2021/01/08 01:15:54;;;;;;;39.38;26.15;;;77.10;2227.20;;;;;;4913944;29;20055;-73
2021/01/08 01:18:20;;;;;;;35.60;25.10;;;77.10;2227.20;;;;;;4915722;29;20079;-73
2021/01/08 01:20:46;;;;;;;35.13;25.77;;;77.10;2227.20;;;;;;4914749;29;20020;-71
2021/01/08 01:23:12;;;;;;;39.50;26.83;;;77.10;2227.20;;;;;;4915945;29;20103;-73
2021/01/08 01:25:38;;;;;;;42.22;27.65;;;77.10;2227.20;;;;;;4892033;29;20475;-70
2021/01/08 01:28:04;;;;;;;39.22;27.15;;;77.10;2227.20;;;;;;4916129;29;20061;-72
2021/01/08 01:30:31;;;;;;;38.65;26.02;;;77.10;2227.20;;;;;;4918393;29;20790;-70
2021/01/08 01:32:59;;;;;;;35.58;25.38;;;77.00;2227.20;;;;;;4918897;29;20064;-69
2021/01/08 01:35:26;;;;;;;35.33;24.77;;;77.10;2227.20;;;;;;4917280;29;20051;-71
2021/01/08 01:37:52;;;;;;;35.38;24.73;;;77.10;2227.20;;;;;;4915531;29;20073;-66
2021/01/08 01:40:19;;;;;;;34.78;22.90;;;77.10;2227.20;;;;;;4918289;29;20032;-67
2021/01/08 01:42:45;;;;;;;33.03;23.42;;;77.10;2227.20;;;;;;4918839;29;20509;-72
2021/01/08 01:45:11;;;;;;;32.03;23.35;;;77.10;2227.20;;;;;;4917694;29;20032;-69
2021/01/08 01:47:37;;;;;;;31.90;23.52;;;77.10;2227.20;;;;;;4916776;29;20039;-66
2021/01/08 01:50:03;;;;;;;31.92;24.38;;;77.10;2227.20;;;;;;4918010;29;20040;-67
2021/01/08 01:52:29;;;;;;;32.38;24.13;;;77.10;2227.20;;;;;;4918643;29;20024;-72
2021/01/08 01:54:56;;;;;;;36.17;25.73;;;77.10;2227.20;;;;;;4917173;29;20176;-71
2021/01/08 01:57:22;;;;;;;34.28;26.08;;;77.10;2227.20;;;;;;4916542;29;20521;-67
2021/01/08 01:59:48;;;;;;;40.10;25.77;;;77.10;2227.20;;;;;;4917743;29;20036;-67
2021/01/08 02:02:28;;;;;;;38.55;27.30;;;77.00;2227.20;;;;;;4917504;29;20057;-67
2021/01/08 02:04:55;;;;;;;35.17;26.10;;;77.00;2227.20;;;;;;4918562;29;20107;-71
2021/01/08 02:07:23;;;;;;;35.55;25.90;;;77.00;2227.20;;;;;;4916790;29;20052;-72
2021/01/08 02:09:50;;;;;;;37.47;26.38;;;76.90;2227.20;;;;;;4917345;29;20448;-70
2021/01/08 02:12:17;;;;;;;37.88;25.60;;;76.90;2227.20;;;;;;4917449;29;20028;-72
2021/01/08 02:14:45;;;;;;;34.50;25.20;;;76.90;2227.20;;;;;;4918877;29;20039;-71
2021/01/08 02:17:14;;;;;;;35.40;25.65;;;76.90;2227.20;;;;;;4914599;29;20044;-73
2021/01/08 02:20:03;;;;;;;37.65;25.50;;;76.90;2227.20;;;;;;4916344;29;20106;-69
2021/01/08 02:22:50;;;;;;;34.92;24.95;;;76.90;2227.20;;;;;;4905794;29;20144;-67
2021/01/08 02:25:22;;;;;;;38.10;25.65;;;76.90;2227.20;;;;;;4918070;29;20029;-67
2021/01/08 02:28:14;;;;;;;32.00;24.55;;;76.90;2227.20;;;;;;4917637;29;20051;-73
2021/01/08 02:30:41;;;;;;;35.97;24.30;;;76.90;2227.20;;;;;;4916219;29;20047;-73
2021/01/08 02:33:08;;;;;;;35.58;25.23;;;76.90;2227.20;;;;;;4917407;29;20035;-70
2021/01/08 02:35:34;;;;;;;32.47;24.15;;;76.80;2227.20;;;;;;4918321;29;20383;-73
2021/01/08 02:38:01;;;;;;;33.75;25.38;;;76.80;2227.20;;;;;;4916176;29;20047;-73
2021/01/08 02:40:27;;;;;;;31.17;23.40;;;76.90;2227.20;;;;;;4916131;29;20447;-71
2021/01/08 02:43:00;;;;;;;32.70;23.95;;;77.10;2227.20;;;;;;4917171;29;20119;-73
2021/01/08 02:45:26;;;;;;;38.72;24.33;;;76.80;2227.20;;;;;;4930894;29;20059;-73
2021/01/08 02:47:51;;;;;;;35.10;24.73;;;76.80;2227.20;;;;;;4915860;29;20064;-69
2021/01/08 02:50:17;;;;;;;34.30;25.05;;;76.80;2227.20;;;;;;4917985;29;20119;-73
2021/01/08 02:52:48;;;;;;;33.22;24.40;;;76.80;2227.20;;;;;;4914740;29;20024;-67
2021/01/08 02:55:20;;;;;;;34.95;25.77;;;76.80;2227.20;;;;;;4917523;29;20103;-67
2021/01/08 02:57:46;;;;;;;36.05;25.58;;;76.80;2227.20;;;;;;4916139;29;20071;-71
2021/01/08 03:00:13;;;;;;;35.30;25.98;;;76.80;2227.20;;;;;;4916785;29;20038;-70
2021/01/08 03:02:40;;;;;;;33.95;24.83;;;76.80;2227.20;;;;;;4915435;29;20037;-73
2021/01/08 03:05:06;;;;;;;33.38;25.45;;;76.80;2227.20;;;;;;4917393;29;20438;-70
2021/01/08 03:07:32;;;;;;;33.92;24.45;;;76.80;2227.20;;;;;;4916433;29;20067;-70
2021/01/08 03:09:59;;;;;;;33.92;23.77;;;76.80;2227.20;;;;;;4917220;29;20024;-67
2021/01/08 03:12:30;;;;;;;31.13;24.58;;;76.80;2227.20;;;;;;4915276;29;20095;-73
2021/01/08 03:14:56;;;;;;;30.30;23.52;;;76.80;2227.20;;;;;;4917563;29;20068;-71
2021/01/08 03:17:22;;;;;;;32.13;23.60;;;76.80;2227.20;;;;;;4916266;29;20052;-72
2021/01/08 03:19:48;;;;;;;30.92;22.20;;;76.90;2227.20;;;;;;4917317;29;20034;-73
2021/01/08 03:22:15;;;;;;;28.77;21.67;;;76.90;2227.20;;;;;;4916131;29;20439;-69
2021/01/08 03:24:41;;;;;;;28.02;22.23;;;76.90;2227.20;;;;;;4916584;29;20080;-66
2021/01/08 03:27:06;;;;;;;28.20;20.50;;;76.90;2227.20;;;;;;4915229;29;20036;-66
2021/01/08 03:29:32;;;;;;;25.17;18.85;;;77.00;2227.20;;;;;;4917185;29;20106;-72
2021/01/08 03:31:58;;;;;;;26.48;19.48;;;77.00;2227.20;;;;;;4916415;29;20046;-66
2021/01/08 03:34:23;;;;;;;25.20;19.40;;;77.00;2227.20;;;;;;4914935;29;20024;-67
2021/01/08 03:36:49;;;;;;;25.42;19.20;;;77.10;2227.20;;;;;;4916078;29;20549;-70
2021/01/08 03:39:15;;;;;;;26.92;20.10;;;77.10;2227.20;;;;;;4916449;29;20543;-67
2021/01/08 03:41:40;;;;;;;30.05;20.80;;;77.10;2227.20;;;;;;4915876;29;20395;-73
2021/01/08 03:44:06;;;;;;;28.70;19.88;;;77.10;2227.20;;;;;;4915783;29;20039;-67
2021/01/08 03:46:36;;;;;;;26.08;20.05;;;77.10;2227.20;;;;;;4916900;29;20032;-72
2021/01/08 03:49:06;;;;;;;32.40;20.33;;;77.20;2227.20;;;;;;4914083;29;20056;-74
2021/01/08 03:51:32;;;;;;;28.20;21.23;;;77.20;2227.20;;;;;;4915907;29;20039;-73
2021/01/08 03:53:58;;;;;;;27.40;20.02;;;77.20;2227.20;;;;;;4915691;29;20032;-73
2021/01/08 03:56:24;;;;;;;27.73;19.45;;;77.20;2227.20;;;;;;4916585;29;20046;-74
2021/01/08 03:58:49;;;;;;;25.50;18.90;;;77.30;2227.20;;;;;;4914688;29;20398;-73
2021/01/08 04:01:15;;;;;;;23.95;19.13;;;77.30;2227.20;;;;;;4911276;29;20092;-66
2021/01/08 04:03:41;;;;;;;26.20;19.63;;;77.30;2227.20;;;;;;4915001;29;20517;-67
2021/01/08 04:06:06;;;;;;;25.63;18.90;;;77.40;2227.20;;;;;;4916204;29;20052;-73
2021/01/08 04:08:32;;;;;;;21.65;17.23;;;77.60;2227.20;;;;;;4915218;29;20068;-74
2021/01/08 04:10:58;;;;;;;22.77;17.00;;;77.40;2227.20;;;;;;4915327;29;20042;-75
2021/01/08 04:13:23;;;;;;;20.52;16.95;;;77.40;2227.20;;;;;;4916112;29;20032;-68
2021/01/08 04:15:49;;;;;;;21.77;17.25;;;77.40;2227.20;;;;;;4915858;29;20502;-74
2021/01/08 04:18:15;;;;;;;21.27;17.00;;;77.40;2227.20;;;;;;4913820;29;20545;-67
2021/01/08 04:20:40;;;;;;;23.40;17.17;;;77.40;2227.20;;;;;;4913651;29;20025;-71
2021/01/08 04:23:06;;;;;;;23.25;18.33;;;77.40;2227.20;;;;;;4915872;29;20032;-68
2021/01/08 04:25:32;;;;;;;23.98;18.25;;;77.30;2227.20;;;;;;4915650;29;20025;-69
2021/01/08 04:27:57;;;;;;;29.27;21.33;;;77.30;2227.20;;;;;;4916076;29;20480;-72
2021/01/08 04:30:23;;;;;;;27.17;20.67;;;77.30;2227.20;;;;;;4914529;29;20024;-67
2021/01/08 04:32:50;;;;;;;27.83;21.73;;;77.20;2227.20;;;;;;4914690;29;20470;-67
2021/01/08 04:35:15;;;;;;;31.67;22.75;;;77.20;2227.20;;;;;;4911673;29;20490;-67
2021/01/08 04:37:41;;;;;;;30.50;23.45;;;77.20;2227.20;;;;;;4914028;29;20048;-66
2021/01/08 04:40:08;;;;;;;35.50;26.95;;;77.20;2227.20;;;;;;4909178;29;20032;-73
2021/01/08 04:42:34;;;;;;;35.42;26.15;;;77.10;2227.20;;;;;;4913956;29;20171;-67
2021/01/08 04:45:01;;;;;;;34.72;24.52;;;77.10;2227.20;;;;;;4915490;29;20020;-73
2021/01/08 04:47:27;;;;;;;37.33;26.17;;;77.10;2227.20;;;;;;4915406;29;20620;-67
2021/01/08 04:49:53;;;;;;;34.13;27.05;;;77.00;2227.20;;;;;;4915015;29;20032;-67
2021/01/08 04:52:19;;;;;;;31.92;24.35;;;77.00;2227.20;;;;;;4909095;29;20094;-69
2021/01/08 04:54:45;;;;;;;32.42;25.05;;;77.00;2227.20;;;;;;4915209;29;20489;-67
2021/01/08 04:57:12;;;;;;;34.75;25.95;;;77.00;2227.20;;;;;;4914469;29;20100;-68
2021/01/08 04:59:38;;;;;;;33.00;25.27;;;77.00;2227.20;;;;;;4915304;29;20497;-68
2021/01/08 05:02:05;;;;;;;34.60;26.40;;;76.90;2227.20;;;;;;4913844;29;20135;-69
2021/01/08 05:04:31;;;;;;;34.38;25.52;;;76.90;2227.20;;;;;;4907819;29;20036;-70
2021/01/08 05:06:57;;;;;;;33.85;24.77;;;76.90;2227.20;;;;;;4916821;29;20059;-70
2021/01/08 05:09:23;;;;;;;37.50;27.77;;;76.90;2227.20;;;;;;4919086;29;20036;-67
2021/01/08 05:11:48;;;;;;;39.58;28.00;;;76.80;2227.20;;;;;;4917809;29;20475;-67
2021/01/08 05:14:15;;;;;;;39.17;28.92;;;76.80;2227.20;;;;;;4918223;29;20111;-73
2021/01/08 05:16:42;;;;;;;43.92;31.55;;;76.80;2227.20;;;;;;4918826;29;20039;-66
2021/01/08 05:19:07;;;;;;;41.42;32.28;;;76.80;2227.20;;;;;;4919097;29;20486;-69
2021/01/08 05:21:34;;;;;;;42.42;31.85;;;76.80;2227.20;;;;;;4917214;29;20119;-70
2021/01/08 05:24:02;;;;;;;42.90;31.52;;;76.80;2227.20;;;;;;4919070;29;20035;-69
2021/01/08 05:26:28;;;;;;;51.75;37.28;;;52.10;2227.20;;;;;;4916617;29;20036;-73
2021/01/08 05:28:55;;;;;;;56.83;38.63;;;52.10;2227.20;;;;;;4918899;29;20474;-70
2021/01/08 05:31:29;;;;;;;64.78;44.20;;;76.80;2227.20;;;;;;4908552;29;20402;-65
2021/01/08 05:33:55;;;;;;;58.47;37.50;;;76.80;2227.20;;;;;;4917277;29;20107;-65
2021/01/08 05:36:22;;;;;;;44.72;33.05;;;76.80;2227.20;;;;;;4916326;29;20071;-71
2021/01/08 05:38:57;;;;;;;52.83;38.15;;;76.80;2227.20;;;;;;4919365;29;20093;-67
2021/01/08 05:41:24;;;;;;;57.38;39.88;;;76.80;2227.20;;;;;;4919471;29;20075;-64
2021/01/08 05:43:50;;;;;;;58.85;40.47;;;76.80;2227.20;;;;;;4912213;29;20525;-67
2021/01/08 05:46:18;;;;;;;49.85;35.65;;;76.80;2227.20;;;;;;4913289;29;20036;-65
2021/01/08 05:49:05;;;;;;;52.38;35.17;;;76.80;2227.20;;;;;;4914132;29;20116;-73
2021/01/08 05:51:38;;;;;;;66.30;41.97;;;76.80;2227.20;;;;;;4915011;29;20028;-64
2021/01/08 05:54:05;;;;;;;68.40;43.97;;;76.80;2227.20;;;;;;4931874;29;20397;-65
2021/01/08 05:56:38;;;;;;;87.72;51.00;;;76.80;2227.20;;;;;;4916323;29;20402;-72
2021/01/08 05:59:05;;;;;;;62.97;40.83;;;76.80;2227.20;;;;;;4913293;29;20468;-66
2021/01/08 06:01:32;;;;;;;133.50;67.07;;;76.80;2227.20;;;;;;4918571;29;20020;-72
2021/01/08 06:04:00;;;;;;;138.07;70.22;;;76.80;2227.20;;;;;;4916005;29;20051;-68
2021/01/08 06:06:37;;;;;;;175.32;86.63;;;76.80;2227.20;;;;;;4916620;29;20546;-72
2021/01/08 06:09:04;;;;;;;180.25;84.90;;;76.80;2227.20;;;;;;4882822;29;20115;-71
2021/01/08 06:11:30;;;;;;;125.13;61.20;;;52.10;2227.20;;;;;;4873280;29;20795;-65
2021/01/08 06:14:01;;;;;;;95.75;51.50;;;76.90;2227.20;;;;;;4881596;29;20143;-65
2021/01/08 06:16:55;;;;;;;61.25;40.80;;;76.80;2227.20;;;;;;4876613;29;20036;-66
2021/01/08 06:19:21;;;;;;;60.90;38.80;;;76.90;2227.20;;;;;;4883749;29;20945;-65
2021/01/08 06:21:47;;;;;;;66.00;44.83;;;76.80;2227.20;;;;;;4874366;29;20047;-70
2021/01/08 06:24:22;;;;;;;54.25;39.70;;;76.80;2227.20;;;;;;4904564;28;20036;-78
2021/01/08 06:26:49;;;;;;;57.63;39.47;;;52.10;2227.20;;;;;;4877698;29;20146;-74
2021/01/08 06:29:22;;;;;;;71.03;46.30;;;76.80;2227.20;;;;;;4882795;29;20039;-76
2021/01/08 06:31:56;;;;;;;84.35;53.40;;;76.80;2227.20;;;;;;4881218;29;20028;-72
2021/01/08 06:34:27;;;;;;;76.50;48.92;;;76.80;2227.20;;;;;;4892275;29;20028;-77
2021/01/08 06:37:14;;;;;;;65.18;42.47;;;76.80;2227.20;;;;;;4895806;29;20846;-75
2021/01/08 06:39:45;;;;;;;60.70;41.60;;;76.80;2227.20;;;;;;4922093;29;20139;-74
2021/01/08 06:42:26;;;;;;;67.32;45.30;;;52.10;2227.20;;;;;;4911459;29;20021;-74
2021/01/08 06:44:53;;;;;;;62.72;41.35;;;76.80;2227.20;;;;;;4883878;29;20063;-75
2021/01/08 06:47:21;;;;;;;68.97;43.97;;;52.10;2227.20;;;;;;4889919;29;20915;-72
2021/01/08 06:49:51;;;;;;;87.43;51.22;;;76.80;2227.20;;;;;;4886739;29;20084;-73
2021/01/08 06:52:17;;;;;;;86.47;51.72;;;52.10;2227.20;;;;;;4873431;29;20043;-70
2021/01/08 06:55:13;;;;;;;81.82;51.50;;;52.10;2227.20;;;;;;4883252;29;20410;-73
2021/01/08 06:57:49;;;;;;;85.03;53.22;;;52.10;2227.20;;;;;;4895448;29;20679;-75
2021/01/08 07:00:21;;;;;;;84.20;51.78;;;52.00;2227.20;;;;;;4884859;29;20044;-74
2021/01/08 07:02:51;;;;;;;77.22;46.70;;;52.10;2227.20;;;;;;4878184;29;20043;-67
2021/01/08 07:05:18;;;;;;;74.30;46.83;;;52.10;2227.20;;;;;;4875860;29;20046;-76
2021/01/08 07:07:45;;;;;;;66.38;43.72;;;52.10;2227.20;;;;;;4879983;29;20175;-69
2021/01/08 07:10:15;;;;;;;72.05;45.55;;;52.10;2227.20;;;;;;4878771;29;20020;-70
2021/01/08 07:12:42;;;;;;;67.38;43.60;;;52.00;2227.20;;;;;;4879194;29;20927;-69
2021/01/08 07:15:09;;;;;;;70.55;44.80;;;52.10;2227.20;;;;;;4879434;29;20036;-68
2021/01/08 07:17:39;;;;;;;75.45;46.67;;;77.30;2227.20;;;;;;4878174;29;20056;-69
2021/01/08 07:20:07;;;;;;;79.18;49.25;;;52.10;2227.20;;;;;;4877578;29;20028;-69
2021/01/08 07:22:37;;;;;;;77.32;49.47;;;76.80;2227.20;;;;;;4878311;29;20092;-68
2021/01/08 07:25:05;;;;;;;85.53;55.05;;;76.80;2227.20;;;;;;4877985;29;20409;-69
2021/01/08 07:27:32;;;;;;;79.53;53.38;;;76.90;2227.20;;;;;;4882202;29;20036;-70
2021/01/08 07:30:00;;;;;;;72.88;50.33;;;76.90;2227.20;;;;;;4892395;29;20075;-69
2021/01/08 07:32:45;;;;;;;79.57;52.45;;;76.90;2227.20;;;;;;4879048;29;20040;-68
2021/01/08 07:35:18;;;;;;;74.75;52.90;;;76.80;2227.20;;;;;;4871987;29;20062;-68
2021/01/08 07:37:55;;;;;;;68.32;48.55;;;77.00;2227.20;;;;;;4880452;29;20957;-68
2021/01/08 07:40:21;;;;;;;73.32;50.90;;;77.00;2227.20;;;;;;4882928;29;20597;-68
2021/01/08 07:43:11;;;;;;;68.82;47.67;;;77.10;2227.20;;;;;;4879417;29;20562;-68
2021/01/08 07:45:50;;;;;;;64.68;45.15;;;77.10;2227.20;;;;;;4883610;29;20333;-68
2021/01/08 07:48:21;;;;;;;70.18;48.03;;;77.20;2227.20;;;;;;4887935;29;20489;-68
2021/01/08 07:51:00;;;;;;;68.15;48.45;;;77.50;2227.20;;;;;;4869943;29;20146;-68
2021/01/08 07:53:41;;;;;;;68.45;47.90;;;77.10;2227.20;;;;;;4882232;29;20689;-68
2021/01/08 07:56:21;;;;;;;71.63;49.70;;;77.40;2227.20;;;;;;4879935;29;20193;-69
2021/01/08 07:59:00;;;;;;;71.38;47.33;;;77.50;2227.20;;;;;;4889725;29;20051;-68
2021/01/08 08:01:27;;;;;;;62.65;46.80;;;77.30;2227.20;;;;;;4874605;29;20285;-69
2021/01/08 08:04:03;;;;;;;62.22;45.15;;;77.50;2227.20;;;;;;4882729;29;20036;-68
2021/01/08 08:06:35;;;;;;;61.78;44.45;;;77.60;2227.20;;;;;;4869551;29;20558;-68
2021/01/08 08:09:06;;;;;;;61.78;46.35;;;77.60;2227.20;;;;;;4878605;29;20139;-68
2021/01/08 08:11:34;;;;;;;64.75;46.22;;;77.60;2227.20;;;;;;4875634;29;20222;-68
2021/01/08 08:14:01;;;;;;;68.55;48.80;;;77.70;2227.20;;;;;;4876641;29;20044;-68
2021/01/08 08:16:37;;;;;;;77.55;55.10;;;102.70;2227.20;;;;;;4888376;29;20028;-68
2021/01/08 08:19:04;;;;;;;68.75;48.53;;;102.50;2227.20;;;;;;4889076;29;20036;-69
2021/01/08 08:21:30;;;;;;;77.65;52.85;;;77.60;2227.20;;;;;;4879636;29;20377;-68
2021/01/08 08:23:58;;;;;;;82.18;53.25;;;77.60;2227.20;;;;;;4890030;29;20035;-68
2021/01/08 08:26:25;;;;;;;79.70;52.05;;;77.50;2227.20;;;;;;4880741;29;20044;-69
2021/01/08 08:28:58;;;;;;;84.28;54.47;;;77.50;2227.20;;;;;;4865813;29;20115;-69
2021/01/08 08:31:27;;;;;;;77.18;51.72;;;77.50;2227.20;;;;;;4878930;29;20480;-68
2021/01/08 08:33:53;;;;;;;79.85;50.22;;;77.50;2227.20;;;;;;4879813;29;20432;-68
2021/01/08 08:36:25;;;;;;;86.70;53.10;;;77.40;2227.20;;;;;;4871523;29;20041;-68
2021/01/08 08:39:06;;;;;;;84.13;53.85;;;77.40;2227.20;;;;;;4875525;29;20052;-68
2021/01/08 08:41:33;;;;;;;76.75;51.13;;;77.50;2227.20;;;;;;4876064;29;20039;-68
2021/01/08 08:44:06;;;;;;;88.28;53.20;;;77.50;2227.20;;;;;;4877031;29;20599;-68
2021/01/08 08:46:55;;;;;;;79.00;50.58;;;77.50;2227.20;;;;;;4876250;29;20038;-67
2021/01/08 08:49:33;;;;;;;92.97;56.25;;;77.50;2227.20;;;;;;4877136;29;20187;-68
2021/01/08 08:51:59;;;;;;;70.57;48.78;;;77.50;2227.20;;;;;;4877579;29;20446;-73
2021/01/08 08:54:26;;;;;;;94.63;58.22;;;77.40;2227.20;;;;;;4883312;29;20854;-77
2021/01/08 08:57:01;;;;;;;79.57;51.85;;;77.30;2227.20;;;;;;4878978;29;20108;-75
2021/01/08 08:59:38;;;;;;;77.15;51.83;;;77.40;2227.20;;;;;;4886236;29;20020;-82
2021/01/08 09:02:05;;;;;;;90.32;55.60;;;77.40;2227.20;;;;;;4880179;29;20865;-76
2021/01/08 09:04:31;;;;;;;106.28;61.60;;;77.40;2227.20;;;;;;4881332;29;20123;-70
2021/01/08 09:07:01;;;;;;;100.50;58.63;;;77.50;2227.20;;;;;;4878300;29;20056;-72
2021/01/08 09:09:31;;;;;;;92.03;57.53;;;77.40;2227.20;;;;;;4882126;29;20039;-73
2021/01/08 09:12:27;;;;;;;99.80;58.10;;;77.40;2227.20;;;;;;4891370;29;20028;-74
2021/01/08 09:15:02;;;;;;;60.08;43.75;;;77.50;2227.20;;;;;;4879152;29;20042;-72
2021/01/08 09:17:34;;;;;;;53.42;40.03;;;77.60;2227.20;;;;;;4884323;29;20147;-73
2021/01/08 09:20:04;;;;;;;49.25;35.65;;;77.70;2227.20;;;;;;4877148;29;20402;-67
2021/01/08 09:22:33;;;;;;;40.67;32.28;;;102.40;2227.20;;;;;;4881674;29;20067;-74
2021/01/08 09:25:00;;;;;;;48.63;35.03;;;102.40;2227.20;;;;;;4875325;29;20032;-73
2021/01/08 09:27:27;;;;;;;37.10;28.48;;;102.40;2227.20;;;;;;4881890;29;20028;-71
2021/01/08 09:29:53;;;;;;;33.72;26.15;;;102.40;2227.20;;;;;;4878531;29;20112;-75
2021/01/08 09:32:33;;;;;;;30.73;22.23;;;102.40;2227.20;;;;;;4879083;29;20153;-73
2021/01/08 09:35:10;;;;;;;28.33;20.98;;;102.50;2227.20;;;;;;4876173;29;20024;-73
2021/01/08 09:37:59;;;;;;;27.58;22.00;;;102.50;2227.20;;;;;;4880581;29;20882;-73
2021/01/08 09:40:25;;;;;;;32.78;23.85;;;102.60;2227.20;;;;;;4886718;29;20055;-74
2021/01/08 09:42:52;;;;;;;36.92;27.15;;;128.50;2252.80;;;;;;4877640;29;20028;-68
2021/01/08 09:45:27;;;;;;;27.35;19.98;;;102.70;2227.20;;;;;;4875350;29;20041;-71
2021/01/08 09:47:54;;;;;;;24.83;18.58;;;102.80;2227.20;;;;;;4875396;29;20038;-77
2021/01/08 09:50:26;;;;;;;23.55;18.85;;;102.80;2227.20;;;;;;4880872;29;20139;-76
2021/01/08 09:52:57;;;;;;;19.27;14.43;;;102.80;2227.20;;;;;;4888955;29;20039;-76
2021/01/08 09:55:24;;;;;;;19.23;15.07;;;102.90;2227.20;;;;;;4881771;29;20138;-83
2021/01/08 09:57:55;;;;;;;26.60;19.70;;;102.80;2227.20;;;;;;4883295;29;20039;-70
2021/01/08 10:00:31;;;;;;;22.25;16.58;;;103.00;2227.20;;;;;;4881667;29;20028;-72
2021/01/08 10:02:57;;;;;;;18.92;14.90;;;102.90;2227.20;;;;;;4890377;29;20032;-71
2021/01/08 10:05:25;;;;;;;20.88;16.23;;;102.90;2227.20;;;;;;4897395;29;20091;-69
2021/01/08 10:07:53;;;;;;;21.58;15.85;;;103.00;2227.20;;;;;;4883658;29;20063;-70
2021/01/08 10:10:25;;;;;;;18.50;14.10;;;103.20;2227.20;;;;;;4880577;29;20131;-69
2021/01/08 10:12:52;;;;;;;23.50;16.33;;;103.10;2227.20;;;;;;4885679;29;20473;-69
2021/01/08 10:15:19;;;;;;;18.50;14.50;;;103.20;2227.20;;;;;;4892792;29;20489;-69
2021/01/08 10:17:46;;;;;;;24.23;16.98;;;103.10;2227.20;;;;;;4865385;29;20626;-69
2021/01/08 10:20:20;;;;;;;20.50;14.77;;;103.10;2227.20;;;;;;4897059;29;20083;-69
2021/01/08 10:22:47;;;;;;;29.08;18.63;;;102.90;2227.20;;;;;;4879814;29;20426;-69
2021/01/08 10:25:31;;;;;;;13.45;9.65;;;102.90;2227.20;;;;;;4882973;29;20074;-68
2021/01/08 10:28:19;;;;;;;17.35;11.27;;;102.80;2227.20;;;;;;4879537;29;20032;-71
2021/01/08 10:30:46;;;;;;;15.07;10.05;;;102.60;2227.20;;;;;;4881376;29;20024;-69
2021/01/08 10:33:13;;;;;;;56.78;27.13;;;102.60;2227.20;;;;;;4887407;29;20051;-68
2021/01/08 10:35:44;;;;;;;26.73;17.05;;;77.50;2227.20;;;;;;4881641;29;20072;-69
2021/01/08 10:38:09;;;;;;;44.20;21.83;;;102.90;2227.20;;;;;;4878969;29;20872;-69
2021/01/08 10:40:35;;;;;;;45.10;23.10;;;128.20;2252.80;;;;;;4890421;29;20032;-68
2021/01/08 10:43:01;;;;;;;37.58;21.48;;;103.00;2227.20;;;;;;4889381;29;20599;-68
2021/01/08 10:45:26;;;;;;;12.98;9.32;;;103.10;2227.20;;;;;;4885396;29;20809;-69
2021/01/08 10:47:52;;;;;;;12.68;10.05;;;103.20;2227.20;;;;;;4882913;29;20035;-79
2021/01/08 10:50:18;;;;;;;12.90;9.43;;;103.30;2227.20;;;;;;4897388;29;20676;-77
2021/01/08 10:52:44;;;;;;;8.63;6.90;;;103.30;2227.20;;;;;;4884189;29;20059;-72
2021/01/08 10:55:10;;;;;;;7.45;6.28;;;103.30;2227.20;;;;;;4887151;29;20028;-72
2021/01/08 10:57:37;;;;;;;10.35;7.38;;;103.30;2227.20;;;;;;4884480;29;20669;-72
2021/01/08 11:00:06;;;;;;;9.10;7.40;;;102.70;2227.20;;;;;;4873231;29;20054;-76
2021/01/08 11:02:32;;;;;;;11.05;7.68;;;128.00;2252.80;;;;;;4890852;29;20035;-73
2021/01/08 11:04:57;;;;;;;14.18;9.38;;;128.10;2252.80;;;;;;4884604;29;20052;-70
2021/01/08 11:07:23;;;;;;;11.27;9.13;;;128.20;2252.80;;;;;;4888602;29;21120;-71
2021/01/08 11:09:49;;;;;;;10.55;7.35;;;128.30;2252.80;;;;;;4884911;29;20094;-72
2021/01/08 11:12:14;;;;;;;10.63;7.90;;;128.30;2252.80;;;;;;4881785;29;20032;-74
2021/01/08 11:14:40;;;;;;;11.80;8.82;;;128.10;2252.80;;;;;;4889988;29;20032;-74
2021/01/08 11:17:06;;;;;;;14.70;9.93;;;103.30;2227.20;;;;;;4863207;29;20032;-72
2021/01/08 11:19:32;;;;;;;15.63;11.68;;;103.00;2227.20;;;;;;4860021;29;20051;-69
2021/01/08 11:21:59;;;;;;;17.80;12.02;;;128.20;2252.80;;;;;;4896220;29;20109;-70
2021/01/08 11:24:25;;;;;;;15.07;11.10;;;103.00;2227.20;;;;;;4890683;29;20094;-74
2021/01/08 11:26:50;;;;;;;18.83;12.63;;;103.30;2227.20;;;;;;4894070;29;20028;-75
2021/01/08 11:29:16;;;;;;;17.40;12.77;;;103.30;2227.20;;;;;;4878525;29;20825;-72
2021/01/08 11:31:42;;;;;;;19.35;13.82;;;103.30;2227.20;;;;;;4864664;29;20079;-73
2021/01/08 11:34:12;;;;;;;24.20;17.35;;;103.20;2227.20;;;;;;4880397;29;20134;-72
2021/01/08 11:36:38;;;;;;;29.48;22.73;;;103.00;2227.20;;;;;;4885892;29;20039;-73
2021/01/08 11:39:06;;;;;;;35.28;26.10;;;128.50;2252.80;;;;;;4883096;29;20028;-72
2021/01/08 11:41:32;;;;;;;36.65;28.52;;;103.20;2227.20;;;;;;4879221;29;20036;-73
2021/01/08 11:43:57;;;;;;;39.35;29.95;;;128.30;2252.80;;;;;;4874042;29;20899;-69
2021/01/08 11:46:23;;;;;;;45.60;32.45;;;103.10;2227.20;;;;;;4890048;29;20048;-70
2021/01/08 11:48:52;;;;;;;43.00;31.17;;;103.00;2227.20;;;;;;4884508;29;20036;-67
2021/01/08 11:51:19;;;;;;;38.80;28.90;;;103.20;2227.20;;;;;;4871713;29;20460;-72
2021/01/08 11:53:47;;;;;;;39.97;29.15;;;103.10;2227.20;;;;;;4858111;29;20033;-71
2021/01/08 11:56:16;;;;;;;32.97;25.10;;;103.20;2227.20;;;;;;4871641;29;20095;-71
2021/01/08 11:58:44;;;;;;;30.23;23.88;;;103.10;2227.20;;;;;;4879041;29;20468;-72
2021/01/08 12:01:11;;;;;;;31.95;25.00;;;103.10;2227.20;;;;;;4874820;29;20028;-73
2021/01/08 12:03:38;;;;;;;27.38;21.05;;;103.10;2227.20;;;;;;4873822;29;20040;-74
2021/01/08 12:06:08;;;;;;;30.35;23.05;;;103.10;2227.20;;;;;;4871187;29;20051;-75
2021/01/08 12:08:36;;;;;;;24.25;19.08;;;103.10;2227.20;;;;;;4877591;29;20119;-74
2021/01/08 12:11:03;;;;;;;24.52;17.58;;;103.00;2227.20;;;;;;4871502;29;20032;-74
2021/01/08 12:13:28;;;;;;;21.05;15.98;;;102.80;2227.20;;;;;;4878342;29;20516;-73